sensor_id;sensor_type;location;lat;lon;timestamp;P1;durP1;ratioP1;P2;durP2;ratioP2
19863;SDS011;10094;48.820;9.226;2023-06-22T00:01:25;10.25;;;8.90;;
19863;SDS011;10094;48.820;9.226;2023-06-22T00:08:07;11.38;;;9.18;;
19863;SDS011;10094;48.820;9.226;2023-06-22T00:14:50;10.02;;;8.93;;
19863;SDS011;10094;48.820;9.226;2023-06-22T00:21:32;10.80;;;8.30;;
19863;SDS011;10094;48.820;9.226;2023-06-22T00:28:15;10.85;;;8.80;;
19863;SDS011;10094;48.820;9.226;2023-06-22T00:34:57;9.88;;;8.98;;
19863;SDS011;10094;48.820;9.226;2023-06-22T00:41:40;10.65;;;9.55;;
19863;SDS011;10094;48.820;9.226;2023-06-22T00:48:22;12.60;;;10.18;;
19863;SDS011;10094;48.820;9.226;2023-06-22T00:55:05;9.57;;;8.68;;
19863;SDS011;10094;48.820;9.226;2023-06-22T01:01:48;9.18;;;8.27;;
19863;SDS011;10094;48.820;9.226;2023-06-22T01:08:43;12.57;;;9.60;;
19863;SDS011;10094;48.820;9.226;2023-06-22T01:16:04;13.90;;;9.38;;
19863;SDS011;10094;48.820;9.226;2023-06-22T01:23:00;10.57;;;9.18;;
19863;SDS011;10094;48.820;9.226;2023-06-22T01:30:03;10.57;;;9.48;;
19863;SDS011;10094;48.820;9.226;2023-06-22T01:36:50;11.73;;;9.88;;
19863;SDS011;10094;48.820;9.226;2023-06-22T01:43:34;11.75;;;10.23;;
19863;SDS011;10094;48.820;9.226;2023-06-22T01:50:17;10.95;;;9.65;;
19863;SDS011;10094;48.820;9.226;2023-06-22T01:57:00;11.40;;;9.98;;
19863;SDS011;10094;48.820;9.226;2023-06-22T02:03:44;10.70;;;9.60;;
19863;SDS011;10094;48.820;9.226;2023-06-22T02:10:35;17.60;;;10.00;;
19863;SDS011;10094;48.820;9.226;2023-06-22T02:17:19;10.68;;;9.38;;
19863;SDS011;10094;48.820;9.226;2023-06-22T02:24:01;11.98;;;9.73;;
19863;SDS011;10094;48.820;9.226;2023-06-22T02:30:44;14.88;;;10.43;;
19863;SDS011;10094;48.820;9.226;2023-06-22T02:37:27;17.55;;;11.45;;
19863;SDS011;10094;48.820;9.226;2023-06-22T02:44:11;14.50;;;10.63;;
19863;SDS011;10094;48.820;9.226;2023-06-22T02:50:54;15.48;;;10.57;;
19863;SDS011;10094;48.820;9.226;2023-06-22T02:57:37;12.00;;;10.20;;
19863;SDS011;10094;48.820;9.226;2023-06-22T03:04:19;12.57;;;10.40;;
19863;SDS011;10094;48.820;9.226;2023-06-22T03:11:02;12.93;;;10.80;;
19863;SDS011;10094;48.820;9.226;2023-06-22T03:17:45;13.10;;;10.55;;
19863;SDS011;10094;48.820;9.226;2023-06-22T03:24:28;14.77;;;11.68;;
19863;SDS011;10094;48.820;9.226;2023-06-22T03:31:11;16.95;;;11.25;;
19863;SDS011;10094;48.820;9.226;2023-06-22T03:37:55;13.57;;;10.48;;
19863;SDS011;10094;48.820;9.226;2023-06-22T03:44:37;12.10;;;10.80;;
19863;SDS011;10094;48.820;9.226;2023-06-22T03:51:20;15.75;;;12.07;;
19863;SDS011;10094;48.820;9.226;2023-06-22T03:58:02;19.33;;;11.75;;
19863;SDS011;10094;48.820;9.226;2023-06-22T04:04:47;14.93;;;11.13;;
19863;SDS011;10094;48.820;9.226;2023-06-22T04:11:30;11.68;;;10.20;;
19863;SDS011;10094;48.820;9.226;2023-06-22T04:18:12;16.77;;;10.95;;
19863;SDS011;10094;48.820;9.226;2023-06-22T04:24:55;12.98;;;10.75;;
19863;SDS011;10094;48.820;9.226;2023-06-22T04:31:38;12.65;;;10.60;;
19863;SDS011;10094;48.820;9.226;2023-06-22T04:38:21;12.00;;;10.38;;
19863;SDS011;10094;48.820;9.226;2023-06-22T04:45:04;13.52;;;11.02;;
19863;SDS011;10094;48.820;9.226;2023-06-22T04:51:47;14.73;;;10.35;;
19863;SDS011;10094;48.820;9.226;2023-06-22T04:58:29;10.48;;;9.48;;
19863;SDS011;10094;48.820;9.226;2023-06-22T05:05:14;10.68;;;9.48;;
19863;SDS011;10094;48.820;9.226;2023-06-22T05:11:57;15.23;;;9.45;;
19863;SDS011;10094;48.820;9.226;2023-06-22T05:18:41;13.35;;;9.40;;
19863;SDS011;10094;48.820;9.226;2023-06-22T05:25:25;10.30;;;8.93;;
19863;SDS011;10094;48.820;9.226;2023-06-22T05:32:08;10.63;;;8.75;;
19863;SDS011;10094;48.820;9.226;2023-06-22T05:38:52;9.95;;;8.95;;
19863;SDS011;10094;48.820;9.226;2023-06-22T05:45:34;9.23;;;8.10;;
19863;SDS011;10094;48.820;9.226;2023-06-22T05:52:17;9.05;;;8.15;;
19863;SDS011;10094;48.820;9.226;2023-06-22T05:58:59;9.38;;;7.72;;
19863;SDS011;10094;48.820;9.226;2023-06-22T06:05:41;8.50;;;7.57;;
19863;SDS011;10094;48.820;9.226;2023-06-22T06:12:28;12.07;;;8.38;;
19863;SDS011;10094;48.820;9.226;2023-06-22T06:19:10;8.70;;;7.43;;
19863;SDS011;10094;48.820;9.226;2023-06-22T06:25:53;10.00;;;7.20;;
19863;SDS011;10094;48.820;9.226;2023-06-22T06:32:35;8.85;;;7.63;;
19863;SDS011;10094;48.820;9.226;2023-06-22T06:39:17;8.02;;;7.22;;
19863;SDS011;10094;48.820;9.226;2023-06-22T06:46:00;8.20;;;7.32;;
19863;SDS011;10094;48.820;9.226;2023-06-22T06:52:45;9.38;;;6.70;;
19863;SDS011;10094;48.820;9.226;2023-06-22T06:59:27;7.40;;;6.55;;
19863;SDS011;10094;48.820;9.226;2023-06-22T07:06:10;8.15;;;6.38;;
19863;SDS011;10094;48.820;9.226;2023-06-22T07:12:53;7.65;;;6.68;;
19863;SDS011;10094;48.820;9.226;2023-06-22T07:19:35;7.63;;;6.63;;
19863;SDS011;10094;48.820;9.226;2023-06-22T07:26:18;10.10;;;6.60;;
19863;SDS011;10094;48.820;9.226;2023-06-22T07:33:01;6.35;;;5.75;;
19863;SDS011;10094;48.820;9.226;2023-06-22T07:39:45;6.72;;;5.68;;
19863;SDS011;10094;48.820;9.226;2023-06-22T07:46:27;5.93;;;5.30;;
19863;SDS011;10094;48.820;9.226;2023-06-22T07:53:12;9.05;;;5.70;;
19863;SDS011;10094;48.820;9.226;2023-06-22T07:59:54;8.65;;;5.82;;
19863;SDS011;10094;48.820;9.226;2023-06-22T08:06:36;7.15;;;5.90;;
19863;SDS011;10094;48.820;9.226;2023-06-22T08:13:19;7.32;;;5.82;;
19863;SDS011;10094;48.820;9.226;2023-06-22T08:20:02;6.13;;;5.50;;
19863;SDS011;10094;48.820;9.226;2023-06-22T08:26:51;9.75;;;6.28;;
19863;SDS011;10094;48.820;9.226;2023-06-22T08:33:34;8.75;;;5.80;;
19863;SDS011;10094;48.820;9.226;2023-06-22T08:40:16;6.88;;;5.00;;
19863;SDS011;10094;48.820;9.226;2023-06-22T08:46:58;10.25;;;6.03;;
19863;SDS011;10094;48.820;9.226;2023-06-22T08:53:41;8.15;;;6.05;;
19863;SDS011;10094;48.820;9.226;2023-06-22T09:00:23;9.55;;;5.85;;
19863;SDS011;10094;48.820;9.226;2023-06-22T09:07:06;11.15;;;5.53;;
19863;SDS011;10094;48.820;9.226;2023-06-22T09:13:48;13.27;;;6.30;;
19863;SDS011;10094;48.820;9.226;2023-06-22T09:20:31;7.55;;;6.25;;
19863;SDS011;10094;48.820;9.226;2023-06-22T09:27:14;8.23;;;6.32;;
19863;SDS011;10094;48.820;9.226;2023-06-22T09:33:56;8.75;;;5.68;;
19863;SDS011;10094;48.820;9.226;2023-06-22T09:40:38;9.63;;;6.30;;
19863;SDS011;10094;48.820;9.226;2023-06-22T09:47:22;9.52;;;5.75;;
19863;SDS011;10094;48.820;9.226;2023-06-22T09:54:04;11.90;;;6.53;;
19863;SDS011;10094;48.820;9.226;2023-06-22T10:00:47;11.07;;;5.80;;
19863;SDS011;10094;48.820;9.226;2023-06-22T10:07:29;10.93;;;6.07;;
19863;SDS011;10094;48.820;9.226;2023-06-22T10:14:12;12.30;;;6.45;;
19863;SDS011;10094;48.820;9.226;2023-06-22T10:21:02;12.45;;;6.68;;
19863;SDS011;10094;48.820;9.226;2023-06-22T10:27:44;13.32;;;5.82;;
19863;SDS011;10094;48.820;9.226;2023-06-22T10:34:27;9.50;;;6.35;;
19863;SDS011;10094;48.820;9.226;2023-06-22T10:41:09;11.75;;;6.80;;
19863;SDS011;10094;48.820;9.226;2023-06-22T10:47:51;8.82;;;6.38;;
19863;SDS011;10094;48.820;9.226;2023-06-22T10:54:37;9.38;;;6.60;;
19863;SDS011;10094;48.820;9.226;2023-06-22T11:01:20;12.50;;;6.47;;
19863;SDS011;10094;48.820;9.226;2023-06-22T11:08:17;9.10;;;5.93;;
19863;SDS011;10094;48.820;9.226;2023-06-22T11:14:59;8.23;;;5.97;;
19863;SDS011;10094;48.820;9.226;2023-06-22T11:21:41;12.07;;;6.38;;
19863;SDS011;10094;48.820;9.226;2023-06-22T11:28:24;13.57;;;6.50;;
19863;SDS011;10094;48.820;9.226;2023-06-22T11:35:06;9.10;;;6.18;;
19863;SDS011;10094;48.820;9.226;2023-06-22T11:41:49;10.60;;;6.30;;
19863;SDS011;10094;48.820;9.226;2023-06-22T11:48:32;9.98;;;5.88;;
19863;SDS011;10094;48.820;9.226;2023-06-22T11:55:14;10.68;;;6.32;;
19863;SDS011;10094;48.820;9.226;2023-06-22T12:01:57;11.82;;;6.78;;
19863;SDS011;10094;48.820;9.226;2023-06-22T12:08:40;16.15;;;7.05;;
19863;SDS011;10094;48.820;9.226;2023-06-22T12:15:22;11.48;;;6.97;;
19863;SDS011;10094;48.820;9.226;2023-06-22T12:22:05;13.70;;;6.88;;
19863;SDS011;10094;48.820;9.226;2023-06-22T12:28:48;18.02;;;7.07;;
19863;SDS011;10094;48.820;9.226;2023-06-22T12:35:30;13.93;;;6.88;;
19863;SDS011;10094;48.820;9.226;2023-06-22T12:42:12;10.40;;;6.88;;
19863;SDS011;10094;48.820;9.226;2023-06-22T12:48:55;14.38;;;7.05;;
19863;SDS011;10094;48.820;9.226;2023-06-22T12:55:37;12.52;;;6.78;;
19863;SDS011;10094;48.820;9.226;2023-06-22T13:02:20;14.57;;;7.18;;
19863;SDS011;10094;48.820;9.226;2023-06-22T13:09:02;11.43;;;6.85;;
19863;SDS011;10094;48.820;9.226;2023-06-22T13:15:49;13.93;;;7.28;;
19863;SDS011;10094;48.820;9.226;2023-06-22T13:22:33;11.80;;;6.65;;
19863;SDS011;10094;48.820;9.226;2023-06-22T13:29:22;11.02;;;6.25;;
19863;SDS011;10094;48.820;9.226;2023-06-22T13:36:04;12.05;;;6.53;;
19863;SDS011;10094;48.820;9.226;2023-06-22T13:42:48;13.63;;;6.45;;
19863;SDS011;10094;48.820;9.226;2023-06-22T13:49:30;19.35;;;7.15;;
19863;SDS011;10094;48.820;9.226;2023-06-22T13:56:13;16.45;;;6.97;;
19863;SDS011;10094;48.820;9.226;2023-06-22T14:02:55;12.60;;;6.38;;
19863;SDS011;10094;48.820;9.226;2023-06-22T14:09:38;9.50;;;6.45;;
19863;SDS011;10094;48.820;9.226;2023-06-22T14:16:20;12.15;;;6.43;;
19863;SDS011;10094;48.820;9.226;2023-06-22T14:23:03;11.10;;;6.60;;
19863;SDS011;10094;48.820;9.226;2023-06-22T14:29:45;11.05;;;6.50;;
19863;SDS011;10094;48.820;9.226;2023-06-22T14:36:29;10.88;;;5.53;;
19863;SDS011;10094;48.820;9.226;2023-06-22T14:43:11;12.18;;;6.25;;
19863;SDS011;10094;48.820;9.226;2023-06-22T14:49:53;10.38;;;5.57;;
19863;SDS011;10094;48.820;9.226;2023-06-22T14:56:36;13.75;;;5.97;;
19863;SDS011;10094;48.820;9.226;2023-06-22T15:03:19;11.15;;;5.60;;
19863;SDS011;10094;48.820;9.226;2023-06-22T15:10:07;17.52;;;5.43;;
19863;SDS011;10094;48.820;9.226;2023-06-22T15:16:50;9.80;;;4.60;;
19863;SDS011;10094;48.820;9.226;2023-06-22T15:23:33;11.82;;;4.15;;
19863;SDS011;10094;48.820;9.226;2023-06-22T15:30:15;11.02;;;4.35;;
19863;SDS011;10094;48.820;9.226;2023-06-22T15:36:58;12.13;;;3.83;;
19863;SDS011;10094;48.820;9.226;2023-06-22T15:43:41;12.30;;;4.05;;
19863;SDS011;10094;48.820;9.226;2023-06-22T15:50:24;11.50;;;3.90;;
19863;SDS011;10094;48.820;9.226;2023-06-22T15:57:06;13.02;;;4.75;;
19863;SDS011;10094;48.820;9.226;2023-06-22T16:03:51;10.82;;;4.30;;
19863;SDS011;10094;48.820;9.226;2023-06-22T16:10:34;8.73;;;4.43;;
19863;SDS011;10094;48.820;9.226;2023-06-22T16:17:16;10.43;;;4.35;;
19863;SDS011;10094;48.820;9.226;2023-06-22T16:23:59;11.38;;;3.80;;
19863;SDS011;10094;48.820;9.226;2023-06-22T16:30:41;9.50;;;3.60;;
19863;SDS011;10094;48.820;9.226;2023-06-22T16:37:23;9.55;;;4.45;;
19863;SDS011;10094;48.820;9.226;2023-06-22T16:44:06;12.27;;;4.13;;
19863;SDS011;10094;48.820;9.226;2023-06-22T16:50:48;11.88;;;3.95;;
19863;SDS011;10094;48.820;9.226;2023-06-22T16:57:31;9.07;;;3.97;;
19863;SDS011;10094;48.820;9.226;2023-06-22T17:04:13;8.52;;;4.00;;
19863;SDS011;10094;48.820;9.226;2023-06-22T17:11:00;7.53;;;4.18;;
19863;SDS011;10094;48.820;9.226;2023-06-22T17:17:43;9.70;;;4.45;;
19863;SDS011;10094;48.820;9.226;2023-06-22T17:24:27;10.15;;;5.07;;
19863;SDS011;10094;48.820;9.226;2023-06-22T17:31:09;11.63;;;4.10;;
19863;SDS011;10094;48.820;9.226;2023-06-22T17:37:53;8.30;;;3.97;;
19863;SDS011;10094;48.820;9.226;2023-06-22T17:44:37;8.90;;;4.22;;
19863;SDS011;10094;48.820;9.226;2023-06-22T17:51:19;12.95;;;4.10;;
19863;SDS011;10094;48.820;9.226;2023-06-22T17:58:02;7.20;;;3.55;;
19863;SDS011;10094;48.820;9.226;2023-06-22T18:04:46;7.07;;;4.03;;
19863;SDS011;10094;48.820;9.226;2023-06-22T18:11:30;9.57;;;3.63;;
19863;SDS011;10094;48.820;9.226;2023-06-22T18:18:15;9.30;;;3.75;;
19863;SDS011;10094;48.820;9.226;2023-06-22T18:24:58;9.57;;;3.38;;
19863;SDS011;10094;48.820;9.226;2023-06-22T18:31:44;7.32;;;3.30;;
19863;SDS011;10094;48.820;9.226;2023-06-22T18:38:27;5.97;;;3.38;;
19863;SDS011;10094;48.820;9.226;2023-06-22T18:45:23;5.10;;;2.75;;
19863;SDS011;10094;48.820;9.226;2023-06-22T18:52:12;4.70;;;2.97;;
19863;SDS011;10094;48.820;9.226;2023-06-22T18:58:57;5.22;;;3.13;;
19863;SDS011;10094;48.820;9.226;2023-06-22T19:05:40;12.10;;;7.05;;
19863;SDS011;10094;48.820;9.226;2023-06-22T19:12:24;6.95;;;4.35;;
19863;SDS011;10094;48.820;9.226;2023-06-22T19:19:11;7.00;;;3.92;;
19863;SDS011;10094;48.820;9.226;2023-06-22T19:25:55;6.80;;;2.95;;
19863;SDS011;10094;48.820;9.226;2023-06-22T19:32:42;7.22;;;3.15;;
19863;SDS011;10094;48.820;9.226;2023-06-22T19:39:33;9.77;;;3.03;;
19863;SDS011;10094;48.820;9.226;2023-06-22T19:46:17;7.85;;;3.63;;
19863;SDS011;10094;48.820;9.226;2023-06-22T19:53:08;5.70;;;3.30;;
19863;SDS011;10094;48.820;9.226;2023-06-22T19:59:54;6.10;;;3.40;;
19863;SDS011;10094;48.820;9.226;2023-06-22T20:06:36;6.60;;;3.40;;
19863;SDS011;10094;48.820;9.226;2023-06-22T20:13:20;8.05;;;3.63;;
19863;SDS011;10094;48.820;9.226;2023-06-22T20:20:02;9.35;;;4.22;;
19863;SDS011;10094;48.820;9.226;2023-06-22T20:26:46;7.18;;;3.70;;
19863;SDS011;10094;48.820;9.226;2023-06-22T20:33:29;7.35;;;4.00;;
19863;SDS011;10094;48.820;9.226;2023-06-22T20:40:11;7.85;;;4.10;;
19863;SDS011;10094;48.820;9.226;2023-06-22T20:46:54;7.20;;;3.67;;
19863;SDS011;10094;48.820;9.226;2023-06-22T20:53:37;7.55;;;4.68;;
19863;SDS011;10094;48.820;9.226;2023-06-22T21:00:20;7.75;;;3.45;;
19863;SDS011;10094;48.820;9.226;2023-06-22T21:07:03;6.55;;;2.90;;
19863;SDS011;10094;48.820;9.226;2023-06-22T21:13:46;3.00;;;2.40;;
19863;SDS011;10094;48.820;9.226;2023-06-22T21:20:29;1.95;;;1.45;;
19863;SDS011;10094;48.820;9.226;2023-06-22T21:27:11;4.20;;;1.55;;
19863;SDS011;10094;48.820;9.226;2023-06-22T21:33:54;1.13;;;1.00;;
19863;SDS011;10094;48.820;9.226;2023-06-22T21:40:36;2.75;;;1.15;;
19863;SDS011;10094;48.820;9.226;2023-06-22T21:47:19;0.95;;;0.85;;
19863;SDS011;10094;48.820;9.226;2023-06-22T21:54:01;2.15;;;1.00;;
19863;SDS011;10094;48.820;9.226;2023-06-22T22:00:44;1.25;;;1.15;;
19863;SDS011;10094;48.820;9.226;2023-06-22T22:07:27;1.30;;;1.10;;
19863;SDS011;10094;48.820;9.226;2023-06-22T22:14:12;2.20;;;1.10;;
19863;SDS011;10094;48.820;9.226;2023-06-22T22:20:55;1.20;;;1.10;;
19863;SDS011;10094;48.820;9.226;2023-06-22T22:27:37;1.17;;;1.08;;
19863;SDS011;10094;48.820;9.226;2023-06-22T22:34:19;2.00;;;1.38;;
19863;SDS011;10094;48.820;9.226;2023-06-22T22:41:02;2.08;;;1.30;;
19863;SDS011;10094;48.820;9.226;2023-06-22T22:47:45;2.10;;;1.50;;
19863;SDS011;10094;48.820;9.226;2023-06-22T22:54:27;3.38;;;1.63;;
19863;SDS011;10094;48.820;9.226;2023-06-22T23:01:10;1.77;;;1.27;;
19863;SDS011;10094;48.820;9.226;2023-06-22T23:07:52;4.22;;;1.73;;
19863;SDS011;10094;48.820;9.226;2023-06-22T23:14:34;2.53;;;1.60;;
19863;SDS011;10094;48.820;9.226;2023-06-22T23:21:17;1.48;;;1.35;;
19863;SDS011;10094;48.820;9.226;2023-06-22T23:27:59;2.42;;;1.80;;
19863;SDS011;10094;48.820;9.226;2023-06-22T23:34:42;2.10;;;1.90;;
19863;SDS011;10094;48.820;9.226;2023-06-22T23:41:25;1.67;;;1.52;;
19863;SDS011;10094;48.820;9.226;2023-06-22T23:48:09;2.72;;;2.00;;
19863;SDS011;10094;48.820;9.226;2023-06-22T23:54:53;1.88;;;1.63;;
